Time;durP1;ratioP1;P1;durP2;ratioP2;P2;SDS_P1;SDS_P2;PMS_P1;PMS_P2;Temp;Humidity;BMP_temperature;BMP_pressure;BME280_temperature;BME280_humidity;BME280_pressure;Samples;Min_cycle;Max_cycle;Signal;HPM_P1;HPM_P2
2022/05/14 00:00:13;;;;;;;1.70;1.60;;;;;;;;;;4884554;29;20230;-77
2022/05/14 00:02:39;;;;;;;1.97;1.77;;;;;;;;;;4899759;29;20213;-77
2022/05/14 00:05:05;;;;;;;2.87;1.70;;;;;;;;;;4899901;29;20175;-77
2022/05/14 00:07:31;;;;;;;2.70;1.50;;;;;;;;;;4884324;29;20214;-77
2022/05/14 00:09:57;;;;;;;1.67;1.47;;;;;;;;;;4916485;29;20194;-77
2022/05/14 00:15:08;;;;;;;1.80;1.60;;;;;;;;;;4916938;29;20253;-77
2022/05/14 00:17:34;;;;;;;3.07;1.53;;;;;;;;;;4884136;29;20187;-77
2022/05/14 00:20:00;;;;;;;1.90;1.50;;;;;;;;;;4938059;23;20278;-76
2022/05/14 00:22:26;;;;;;;3.07;1.43;;;;;;;;;;4916271;29;20194;-76
2022/05/14 00:24:53;;;;;;;2.87;1.60;;;;;;;;;;4899468;29;20562;-76
2022/05/14 00:27:19;;;;;;;4.20;1.50;;;;;;;;;;4899487;29;20286;-76
2022/05/14 00:29:45;;;;;;;2.47;1.40;;;;;;;;;;4899279;29;20716;-76
2022/05/14 00:32:11;;;;;;;3.27;1.70;;;;;;;;;;4883716;29;20187;-76
2022/05/14 00:34:37;;;;;;;2.93;1.77;;;;;;;;;;4883859;29;20191;-76
2022/05/14 00:37:03;;;;;;;2.30;1.60;;;;;;;;;;4883796;29;20296;-76
2022/05/14 00:39:29;;;;;;;2.97;1.67;;;;;;;;;;4899283;29;20186;-76
2022/05/14 00:41:55;;;;;;;1.90;1.57;;;;;;;;;;4916077;29;20284;-76
2022/05/14 00:44:21;;;;;;;3.07;1.67;;;;;;;;;;4899227;29;20174;-76
2022/05/14 00:46:56;;;;;;;2.00;1.63;;;;;;;;;;4899544;29;20186;-76
2022/05/14 00:49:23;;;;;;;4.53;1.77;;;;;;;;;;4899131;29;20185;-76
2022/05/14 00:51:50;;;;;;;3.37;1.60;;;;;;;;;;4915806;29;20186;-76
2022/05/14 00:54:17;;;;;;;2.00;1.50;;;;;;;;;;4899097;29;20190;-76
2022/05/14 00:56:49;;;;;;;2.17;1.40;;;;;;;;;;4899149;29;20208;-76
2022/05/14 00:59:17;;;;;;;3.03;1.43;;;;;;;;;;4899183;29;20182;-76
2022/05/14 01:01:44;;;;;;;2.20;1.60;;;;;;;;;;4883409;29;20206;-76
2022/05/14 01:04:10;;;;;;;2.27;1.57;;;;;;;;;;4915904;29;20174;-76
2022/05/14 01:06:37;;;;;;;1.80;1.50;;;;;;;;;;4883698;29;20190;-76
2022/05/14 01:09:06;;;;;;;1.80;1.43;;;;;;;;;;4883638;29;20322;-75
2022/05/14 01:11:34;;;;;;;3.30;1.40;;;;;;;;;;4883704;29;20264;-76
2022/05/14 01:14:00;;;;;;;3.07;1.70;;;;;;;;;;4883144;29;20736;-76
2022/05/14 01:16:26;;;;;;;2.10;1.90;;;;;;;;;;4883511;29;20725;-76
2022/05/14 01:18:52;;;;;;;2.90;1.70;;;;;;;;;;4883348;29;20182;-76
2022/05/14 01:21:23;;;;;;;2.83;1.50;;;;;;;;;;4883244;29;20218;-76
2022/05/14 01:26:43;;;;;;;2.20;1.60;;;;;;;;;;4916063;29;20186;-76
2022/05/14 01:29:11;;;;;;;2.77;1.50;;;;;;;;;;4883641;29;20182;-76
2022/05/14 01:31:38;;;;;;;2.20;1.70;;;;;;;;;;4898773;29;20199;-76
2022/05/14 01:34:06;;;;;;;1.50;1.40;;;;;;;;;;4883541;29;20198;-76
2022/05/14 01:36:33;;;;;;;2.33;1.70;;;;;;;;;;4883481;29;20197;-76
2022/05/14 01:38:59;;;;;;;3.33;1.60;;;;;;;;;;4883382;29;20190;-76
2022/05/14 01:41:25;;;;;;;2.00;1.60;;;;;;;;;;4898944;29;20230;-76
2022/05/14 01:43:51;;;;;;;2.53;1.50;;;;;;;;;;4898712;29;20184;-76
2022/05/14 01:46:18;;;;;;;1.53;1.40;;;;;;;;;;4898915;29;20181;-76
2022/05/14 01:48:44;;;;;;;1.57;1.47;;;;;;;;;;4898673;29;20655;-76
2022/05/14 01:51:10;;;;;;;3.17;1.70;;;;;;;;;;4898712;29;20293;-76
2022/05/14 01:53:36;;;;;;;2.57;1.37;;;;;;;;;;4883095;29;20290;-76
2022/05/14 01:56:02;;;;;;;2.00;1.50;;;;;;;;;;4883116;29;20657;-76
2022/05/14 01:58:37;;;;;;;2.43;1.80;;;;;;;;;;4882937;29;20220;-76
2022/05/14 02:01:20;;;;;;;3.67;1.47;;;;;;;;;;4915495;29;20333;-76
2022/05/14 02:03:48;;;;;;;2.17;1.90;;;;;;;;;;4898492;29;20194;-76
2022/05/14 02:06:15;;;;;;;3.03;1.80;;;;;;;;;;4883076;29;20185;-76
2022/05/14 02:08:41;;;;;;;1.73;1.60;;;;;;;;;;4898494;29;20178;-76
2022/05/14 02:11:08;;;;;;;2.97;1.87;;;;;;;;;;4883150;29;20206;-76
2022/05/14 02:13:34;;;;;;;1.90;1.70;;;;;;;;;;4886192;29;20187;-76
2022/05/14 02:16:00;;;;;;;1.80;1.60;;;;;;;;;;4901888;29;20187;-76
2022/05/14 02:18:26;;;;;;;2.30;1.90;;;;;;;;;;4886215;29;20227;-76
2022/05/14 02:20:53;;;;;;;1.80;1.70;;;;;;;;;;4901824;29;20217;-76
2022/05/14 02:23:19;;;;;;;1.90;1.70;;;;;;;;;;4885895;29;20219;-76
2022/05/14 02:25:45;;;;;;;3.83;1.70;;;;;;;;;;4902035;29;20185;-76
2022/05/14 02:28:11;;;;;;;2.67;1.60;;;;;;;;;;4901764;29;20265;-75
2022/05/14 02:30:37;;;;;;;3.00;1.70;;;;;;;;;;4901263;29;20195;-76
2022/05/14 02:33:03;;;;;;;3.17;1.73;;;;;;;;;;4885533;29;20196;-76
2022/05/14 02:35:29;;;;;;;2.07;1.70;;;;;;;;;;4885894;29;20199;-76
2022/05/14 02:37:55;;;;;;;2.83;1.50;;;;;;;;;;4901282;29;20196;-76
2022/05/14 02:40:21;;;;;;;1.70;1.60;;;;;;;;;;4886047;29;20205;-76
2022/05/14 02:42:47;;;;;;;3.40;1.77;;;;;;;;;;4885827;29;20206;-76
2022/05/14 02:45:14;;;;;;;3.80;1.70;;;;;;;;;;4901414;29;20186;-76
2022/05/14 02:47:40;;;;;;;1.67;1.57;;;;;;;;;;4901221;29;20244;-76
2022/05/14 02:50:07;;;;;;;2.13;1.60;;;;;;;;;;4901036;29;20209;-76
2022/05/14 02:52:33;;;;;;;2.57;1.77;;;;;;;;;;4900978;29;20197;-76
2022/05/14 02:55:00;;;;;;;2.07;1.70;;;;;;;;;;4900907;29;20672;-76
2022/05/14 02:57:26;;;;;;;3.03;1.60;;;;;;;;;;4885490;29;20190;-76
2022/05/14 02:59:52;;;;;;;1.57;1.47;;;;;;;;;;4901016;29;20198;-76
2022/05/14 03:02:18;;;;;;;3.40;1.83;;;;;;;;;;4885336;29;20206;-75
2022/05/14 03:04:45;;;;;;;2.07;1.60;;;;;;;;;;4900950;29;20189;-76
2022/05/14 03:07:11;;;;;;;2.23;1.80;;;;;;;;;;4900801;29;20606;-75
2022/05/14 03:09:38;;;;;;;2.43;1.50;;;;;;;;;;4900764;29;20194;-76
2022/05/14 03:12:04;;;;;;;1.87;1.70;;;;;;;;;;4885030;29;20198;-76
2022/05/14 03:14:30;;;;;;;2.17;1.50;;;;;;;;;;4885474;29;20194;-76
2022/05/14 03:16:57;;;;;;;2.17;1.50;;;;;;;;;;4900802;29;20193;-76
2022/05/14 03:19:23;;;;;;;3.00;1.80;;;;;;;;;;4900624;29;20273;-76
2022/05/14 03:21:49;;;;;;;2.50;1.70;;;;;;;;;;4884734;29;20225;-76
2022/05/14 03:24:15;;;;;;;2.10;1.90;;;;;;;;;;4899539;29;20665;-76
2022/05/14 03:26:42;;;;;;;1.70;1.60;;;;;;;;;;4917458;29;20178;-76
2022/05/14 03:29:08;;;;;;;2.80;1.70;;;;;;;;;;4885204;29;20189;-76
2022/05/14 03:31:35;;;;;;;1.70;1.60;;;;;;;;;;4884984;29;20213;-76
2022/05/14 03:34:01;;;;;;;2.37;1.90;;;;;;;;;;4884759;29;20186;-75
2022/05/14 03:36:28;;;;;;;2.53;1.97;;;;;;;;;;4917152;29;20207;-76
2022/05/14 03:38:54;;;;;;;2.27;1.90;;;;;;;;;;4917179;29;20185;-76
2022/05/14 03:41:20;;;;;;;3.30;1.67;;;;;;;;;;4884647;29;20216;-76
2022/05/14 03:43:47;;;;;;;2.40;1.77;;;;;;;;;;4900160;29;20190;-76
2022/05/14 03:46:13;;;;;;;2.20;1.63;;;;;;;;;;4916962;29;20176;-75
2022/05/14 03:48:39;;;;;;;3.53;1.80;;;;;;;;;;4900156;29;20219;-76
2022/05/14 03:51:06;;;;;;;4.17;2.00;;;;;;;;;;4884776;29;20265;-76
2022/05/14 03:53:33;;;;;;;2.97;1.90;;;;;;;;;;4899977;29;20196;-76
2022/05/14 03:55:59;;;;;;;4.10;1.90;;;;;;;;;;4900140;29;20186;-77
2022/05/14 03:58:25;;;;;;;2.10;1.87;;;;;;;;;;4916863;29;20209;-76
2022/05/14 04:00:51;;;;;;;2.40;1.70;;;;;;;;;;4899809;29;20209;-76
2022/05/14 04:03:17;;;;;;;2.93;1.90;;;;;;;;;;4916560;29;20212;-76
2022/05/14 04:05:44;;;;;;;4.07;1.83;;;;;;;;;;4899706;29;20217;-76
2022/05/14 04:08:10;;;;;;;2.77;1.90;;;;;;;;;;4884569;29;20179;-76
2022/05/14 04:10:36;;;;;;;2.97;1.90;;;;;;;;;;4884273;29;20209;-76
2022/05/14 04:13:02;;;;;;;3.27;2.00;;;;;;;;;;4899550;29;20185;-76
2022/05/14 04:15:28;;;;;;;2.70;2.00;;;;;;;;;;4899608;29;20269;-76
2022/05/14 04:17:55;;;;;;;3.30;1.97;;;;;;;;;;4899681;29;20186;-76
2022/05/14 04:20:21;;;;;;;3.83;1.80;;;;;;;;;;4884122;29;20226;-76
2022/05/14 04:22:48;;;;;;;3.57;1.80;;;;;;;;;;4899234;29;20214;-76
2022/05/14 04:25:14;;;;;;;1.93;1.73;;;;;;;;;;4899436;29;20174;-76
2022/05/14 04:27:41;;;;;;;3.67;1.90;;;;;;;;;;4899474;29;20183;-76
2022/05/14 04:30:08;;;;;;;3.03;1.77;;;;;;;;;;4884137;29;20269;-76
2022/05/14 04:32:34;;;;;;;2.40;2.17;;;;;;;;;;4899030;29;20189;-76
2022/05/14 04:35:00;;;;;;;3.30;1.90;;;;;;;;;;4883699;29;20201;-76
2022/05/14 04:37:26;;;;;;;1.80;1.70;;;;;;;;;;4884180;29;20282;-76
2022/05/14 04:39:52;;;;;;;4.20;1.93;;;;;;;;;;4884032;29;20262;-76
2022/05/14 04:42:18;;;;;;;2.40;1.70;;;;;;;;;;4899031;29;20231;-76
2022/05/14 04:44:45;;;;;;;2.07;1.87;;;;;;;;;;4899294;29;20182;-76
2022/05/14 04:47:12;;;;;;;2.50;2.20;;;;;;;;;;4899060;29;20554;-76
2022/05/14 04:49:42;;;;;;;3.67;1.70;;;;;;;;;;4899333;29;20183;-76
2022/05/14 04:52:08;;;;;;;2.63;2.00;;;;;;;;;;4883492;29;20661;-75
2022/05/14 04:54:35;;;;;;;2.63;1.80;;;;;;;;;;4898989;29;20184;-76
2022/05/14 04:57:01;;;;;;;2.17;1.90;;;;;;;;;;4899064;29;20182;-76
2022/05/14 04:59:27;;;;;;;3.03;1.97;;;;;;;;;;4883543;29;20212;-76
2022/05/14 05:04:41;;;;;;;2.63;2.00;;;;;;;;;;4905126;29;20201;-77
2022/05/14 05:07:07;;;;;;;3.03;2.20;;;;;;;;;;4888432;29;20736;-77
2022/05/14 05:09:33;;;;;;;2.57;2.13;;;;;;;;;;4899033;29;20590;-76
2022/05/14 05:11:59;;;;;;;2.63;1.90;;;;;;;;;;4917615;29;20186;-76
2022/05/14 05:14:26;;;;;;;3.07;2.23;;;;;;;;;;4900218;29;20241;-76
2022/05/14 05:16:52;;;;;;;3.13;2.13;;;;;;;;;;4899296;29;20270;-77
2022/05/14 05:19:18;;;;;;;2.50;2.10;;;;;;;;;;4885632;29;20193;-78
2022/05/14 05:21:45;;;;;;;2.80;2.07;;;;;;;;;;4900550;29;20213;-78
2022/05/14 05:24:11;;;;;;;2.33;2.13;;;;;;;;;;4900999;29;20535;-79
2022/05/14 05:26:38;;;;;;;3.77;2.20;;;;;;;;;;4900538;29;20204;-79
2022/05/14 05:29:04;;;;;;;3.20;2.33;;;;;;;;;;4899385;29;20190;-77
2022/05/14 05:31:31;;;;;;;2.77;2.30;;;;;;;;;;4899852;29;20203;-78
2022/05/14 05:33:57;;;;;;;3.37;2.30;;;;;;;;;;4886106;29;20210;-77
2022/05/14 05:36:23;;;;;;;2.63;2.20;;;;;;;;;;4884577;29;20179;-77
2022/05/14 05:38:51;;;;;;;3.37;2.30;;;;;;;;;;4900899;29;20178;-78
2022/05/14 05:41:17;;;;;;;2.63;2.30;;;;;;;;;;4884098;29;20203;-76
2022/05/14 05:43:43;;;;;;;3.73;2.30;;;;;;;;;;4898364;29;20210;-76
2022/05/14 05:46:11;;;;;;;4.27;2.47;;;;;;;;;;4899449;29;20664;-77
2022/05/14 05:48:37;;;;;;;5.50;2.50;;;;;;;;;;4903932;29;20474;-78
2022/05/14 05:51:03;;;;;;;5.00;2.40;;;;;;;;;;4906714;29;20198;-78
2022/05/14 05:58:59;;;;;;;5.23;2.57;;;;;;;;;;4919543;29;20216;-76
2022/05/14 06:01:25;;;;;;;3.07;2.43;;;;;;;;;;4886627;29;20265;-76
2022/05/14 06:03:52;;;;;;;5.17;2.80;;;;;;;;;;4901738;29;20261;-76
2022/05/14 06:06:18;;;;;;;4.60;2.50;;;;;;;;;;4901817;29;20186;-76
2022/05/14 06:08:45;;;;;;;3.73;2.70;;;;;;;;;;4901952;29;20245;-76
2022/05/14 06:11:11;;;;;;;3.20;2.77;;;;;;;;;;4902207;29;20565;-77
2022/05/14 06:13:37;;;;;;;4.10;2.93;;;;;;;;;;4901940;29;20186;-77
2022/05/14 06:16:03;;;;;;;4.10;2.53;;;;;;;;;;4902691;29;20178;-77
2022/05/14 06:18:29;;;;;;;6.97;3.33;;;;;;;;;;4901920;29;20184;-77
2022/05/14 06:20:55;;;;;;;3.20;2.90;;;;;;;;;;4910255;23;20230;-77
2022/05/14 06:23:21;;;;;;;3.63;2.87;;;;;;;;;;4923160;29;20311;-76
2022/05/14 06:25:47;;;;;;;3.40;2.70;;;;;;;;;;4924346;29;20272;-76
2022/05/14 06:28:13;;;;;;;3.77;2.70;;;;;;;;;;4957117;29;20201;-76
2022/05/14 06:30:43;;;;;;;4.23;3.00;;;;;;;;;;4933171;29;20202;-79
2022/05/14 06:33:09;;;;;;;6.13;2.70;;;;;;;;;;4907368;29;20213;-78
2022/05/14 06:35:36;;;;;;;4.07;2.87;;;;;;;;;;4924365;29;20693;-78
2022/05/14 06:38:03;;;;;;;4.57;3.37;;;;;;;;;;4924859;29;20182;-78
2022/05/14 06:40:29;;;;;;;3.30;2.97;;;;;;;;;;4923833;29;20675;-77
2022/05/14 06:42:55;;;;;;;4.93;3.27;;;;;;;;;;4908404;29;20224;-78
2022/05/14 06:45:21;;;;;;;3.10;2.80;;;;;;;;;;4923907;29;20653;-77
2022/05/14 06:47:48;;;;;;;4.00;3.10;;;;;;;;;;4907476;29;20281;-77
2022/05/14 06:50:14;;;;;;;4.93;3.47;;;;;;;;;;4920633;29;20209;-78
2022/05/14 06:52:43;;;;;;;3.53;3.23;;;;;;;;;;4937152;29;20185;-77
2022/05/14 06:55:10;;;;;;;5.07;3.20;;;;;;;;;;4919862;29;20191;-77
2022/05/14 06:57:37;;;;;;;6.13;3.33;;;;;;;;;;4919111;29;20196;-77
2022/05/14 07:00:03;;;;;;;5.80;3.20;;;;;;;;;;4904327;29;20185;-77
2022/05/14 07:02:30;;;;;;;6.47;3.10;;;;;;;;;;4903905;29;20249;-76
2022/05/14 07:07:40;;;;;;;9.43;3.87;;;;;;;;;;4922840;29;20565;-77
2022/05/14 07:10:07;;;;;;;5.93;3.20;;;;;;;;;;4919850;29;20569;-77
2022/05/14 07:12:33;;;;;;;7.60;3.93;;;;;;;;;;4919989;29;20181;-77
2022/05/14 07:14:59;;;;;;;7.30;4.10;;;;;;;;;;4919682;29;20245;-77
2022/05/14 07:17:26;;;;;;;6.63;3.90;;;;;;;;;;4919593;29;20221;-77
2022/05/14 07:19:52;;;;;;;7.07;3.80;;;;;;;;;;4903653;29;20199;-77
2022/05/14 07:22:18;;;;;;;6.07;3.87;;;;;;;;;;4919431;29;20198;-77
2022/05/14 07:24:45;;;;;;;8.03;4.13;;;;;;;;;;4903955;29;20182;-77
2022/05/14 07:27:12;;;;;;;6.87;3.83;;;;;;;;;;4936709;29;20233;-77
2022/05/14 07:29:42;;;;;;;5.90;3.67;;;;;;;;;;4919479;29;20188;-77
2022/05/14 07:32:09;;;;;;;7.83;3.77;;;;;;;;;;4903530;29;20206;-77
2022/05/14 07:34:35;;;;;;;6.23;3.67;;;;;;;;;;4903978;29;20668;-77
2022/05/14 07:37:07;;;;;;;8.33;4.00;;;;;;;;;;4903684;29;20189;-77
2022/05/14 07:39:48;;;;;;;6.33;3.50;;;;;;;;;;4919485;29;20209;-77
2022/05/14 07:42:18;;;;;;;6.77;3.23;;;;;;;;;;4903395;29;20205;-77
2022/05/14 07:44:46;;;;;;;7.03;3.20;;;;;;;;;;4919357;29;20181;-77
2022/05/14 07:47:13;;;;;;;8.60;4.30;;;;;;;;;;4919322;29;20185;-77
2022/05/14 07:49:39;;;;;;;8.03;3.83;;;;;;;;;;4903714;29;20174;-77
2022/05/14 07:52:05;;;;;;;5.40;3.37;;;;;;;;;;4903738;29;20205;-77
2022/05/14 07:54:33;;;;;;;5.73;3.20;;;;;;;;;;4904651;29;20189;-77
2022/05/14 07:57:00;;;;;;;4.90;3.20;;;;;;;;;;4903713;29;20209;-77
2022/05/14 07:59:27;;;;;;;6.17;3.23;;;;;;;;;;4919342;29;20194;-77
2022/05/14 08:01:53;;;;;;;4.20;2.20;;;;;;;;;;4919022;29;20308;-77
2022/05/14 08:04:19;;;;;;;7.00;2.50;;;;;;;;;;4903463;29;20264;-77
2022/05/14 08:06:45;;;;;;;6.50;2.53;;;;;;;;;;4919175;29;20198;-77
2022/05/14 08:09:11;;;;;;;5.13;2.23;;;;;;;;;;4918607;29;20178;-77
2022/05/14 08:11:38;;;;;;;4.93;2.60;;;;;;;;;;4918929;29;20252;-77
2022/05/14 08:14:04;;;;;;;4.80;2.40;;;;;;;;;;4918623;29;20213;-77
2022/05/14 08:16:31;;;;;;;4.83;2.63;;;;;;;;;;4902886;29;20181;-77
2022/05/14 08:18:57;;;;;;;5.93;2.57;;;;;;;;;;4919077;29;20182;-77
2022/05/14 08:26:53;;;;;;;5.37;2.20;;;;;;;;;;4935847;29;20177;-76
2022/05/14 08:29:20;;;;;;;5.67;2.57;;;;;;;;;;4918434;29;20636;-77
2022/05/14 08:34:50;;;;;;;3.87;2.40;;;;;;;;;;4936148;29;20263;-76
2022/05/14 08:37:16;;;;;;;5.43;2.60;;;;;;;;;;4919210;29;20261;-77
2022/05/14 08:39:42;;;;;;;5.53;2.40;;;;;;;;;;4919103;29;20545;-77
2022/05/14 08:42:10;;;;;;;4.53;2.20;;;;;;;;;;4935394;29;20217;-77
2022/05/14 08:44:38;;;;;;;3.10;2.40;;;;;;;;;;4902858;29;20553;-76
2022/05/14 08:47:06;;;;;;;3.73;2.57;;;;;;;;;;4918878;29;20174;-77
2022/05/14 08:49:34;;;;;;;4.63;2.10;;;;;;;;;;4918860;29;20269;-77
2022/05/14 08:52:01;;;;;;;4.97;2.77;;;;;;;;;;4918598;29;20201;-76
2022/05/14 08:54:27;;;;;;;3.97;2.40;;;;;;;;;;4918476;29;20193;-76
2022/05/14 08:56:56;;;;;;;5.73;2.47;;;;;;;;;;4902741;29;20185;-76
2022/05/14 08:59:59;;;;;;;4.80;2.73;;;;;;;;;;4935571;29;20177;-76
2022/05/14 09:02:42;;;;;;;4.07;2.70;;;;;;;;;;4839495;29;20205;-76
2022/05/14 09:05:08;;;;;;;5.27;2.80;;;;;;;;;;4928023;29;20657;-76
2022/05/14 09:07:36;;;;;;;4.20;2.10;;;;;;;;;;4918347;29;20184;-76
2022/05/14 09:10:04;;;;;;;5.27;2.53;;;;;;;;;;4935647;29;20170;-76
2022/05/14 09:12:31;;;;;;;4.17;2.30;;;;;;;;;;4918187;29;20197;-76
2022/05/14 09:15:03;;;;;;;6.00;2.30;;;;;;;;;;4902957;29;20181;-76
2022/05/14 09:17:30;;;;;;;4.27;2.30;;;;;;;;;;4918561;29;20181;-76
2022/05/14 09:19:57;;;;;;;4.97;2.63;;;;;;;;;;4918339;29;20241;-76
2022/05/14 09:22:23;;;;;;;5.43;2.47;;;;;;;;;;4906279;29;20213;-76
2022/05/14 09:24:53;;;;;;;4.90;2.13;;;;;;;;;;4922438;29;20270;-76
2022/05/14 09:27:22;;;;;;;4.40;2.60;;;;;;;;;;4922115;29;20184;-76
2022/05/14 09:29:51;;;;;;;5.43;2.40;;;;;;;;;;4921891;29;20184;-76
2022/05/14 09:32:17;;;;;;;4.63;2.40;;;;;;;;;;4921632;29;20701;-76
2022/05/14 09:34:43;;;;;;;4.93;2.40;;;;;;;;;;4939045;29;20260;-76
2022/05/14 09:37:13;;;;;;;3.43;2.30;;;;;;;;;;4921824;29;20185;-76
2022/05/14 09:39:40;;;;;;;6.57;2.40;;;;;;;;;;4922097;29;20166;-76
2022/05/14 09:42:07;;;;;;;8.13;2.40;;;;;;;;;;4921796;29;20253;-76
2022/05/14 09:44:44;;;;;;;4.20;2.13;;;;;;;;;;4921819;29;20186;-76
2022/05/14 09:47:12;;;;;;;6.67;2.70;;;;;;;;;;4921977;29;20658;-76
2022/05/14 09:49:42;;;;;;;8.03;2.30;;;;;;;;;;4906182;29;20201;-76
2022/05/14 09:52:10;;;;;;;4.87;2.20;;;;;;;;;;4906126;29;20258;-76
2022/05/14 09:54:45;;;;;;;4.80;2.00;;;;;;;;;;4906080;29;20213;-76
2022/05/14 09:57:17;;;;;;;3.03;2.20;;;;;;;;;;4921728;29;20181;-76
2022/05/14 09:59:43;;;;;;;6.00;2.37;;;;;;;;;;4922826;29;20181;-78
2022/05/14 10:02:23;;;;;;;4.27;2.23;;;;;;;;;;4921248;29;20257;-77
2022/05/14 10:04:55;;;;;;;4.53;2.47;;;;;;;;;;4921820;29;20162;-77
2022/05/14 10:07:31;;;;;;;5.10;2.47;;;;;;;;;;4921723;29;20245;-77
2022/05/14 10:10:16;;;;;;;3.67;2.10;;;;;;;;;;4923229;29;20190;-78
2022/05/14 10:12:56;;;;;;;3.27;2.20;;;;;;;;;;4922625;29;20185;-77
2022/05/14 10:15:45;;;;;;;4.18;2.20;;;;;;;;;;4921307;29;20172;-76
2022/05/14 10:18:26;;;;;;;4.75;2.40;;;;;;;;;;4921559;29;20170;-76
2022/05/14 10:21:31;;;;;;;5.10;2.25;;;;;;;;;;4921424;29;20210;-77
2022/05/14 10:26:50;;;;;;;3.50;2.13;;;;;;;;;;4842469;29;20176;-76
2022/05/14 10:29:25;;;;;;;3.00;2.00;;;;;;;;;;4888803;29;20185;-77
2022/05/14 10:32:02;;;;;;;4.50;2.35;;;;;;;;;;4920561;29;20193;-76
2022/05/14 10:34:31;;;;;;;4.13;2.05;;;;;;;;;;4921193;29;20181;-76
2022/05/14 10:36:59;;;;;;;3.28;1.67;;;;;;;;;;4920822;29;20242;-76
2022/05/14 10:39:45;;;;;;;4.07;1.63;;;;;;;;;;4938084;29;20656;-77
2022/05/14 10:42:18;;;;;;;4.15;1.80;;;;;;;;;;4904669;29;20214;-77
2022/05/14 10:44:52;;;;;;;3.90;2.17;;;;;;;;;;4937809;29;20158;-77
2022/05/14 10:47:19;;;;;;;3.75;1.90;;;;;;;;;;4905127;29;20273;-77
2022/05/14 10:49:49;;;;;;;5.75;1.88;;;;;;;;;;4920847;29;20170;-77
2022/05/14 10:52:16;;;;;;;5.32;1.92;;;;;;;;;;4920504;29;20210;-77
2022/05/14 10:54:43;;;;;;;4.30;1.88;;;;;;;;;;4920952;29;20269;-77
2022/05/14 10:57:09;;;;;;;4.13;1.70;;;;;;;;;;4920434;29;20293;-77
2022/05/14 10:59:38;;;;;;;4.05;1.80;;;;;;;;;;4920560;29;20647;-77
2022/05/14 11:02:28;;;;;;;3.97;1.70;;;;;;;;;;4904769;29;20301;-77
2022/05/14 11:04:54;;;;;;;2.65;1.73;;;;;;;;;;4908149;29;20609;-77
2022/05/14 11:07:28;;;;;;;2.08;1.60;;;;;;;;;;4920293;29;20169;-77
2022/05/14 11:09:55;;;;;;;3.42;1.70;;;;;;;;;;4920255;29;20185;-77
2022/05/14 11:12:21;;;;;;;2.63;1.55;;;;;;;;;;4904386;29;20641;-77
2022/05/14 11:14:55;;;;;;;1.92;1.38;;;;;;;;;;4920440;29;20182;-77
2022/05/14 11:17:30;;;;;;;4.50;1.33;;;;;;;;;;4920011;29;20189;-77
2022/05/14 11:20:05;;;;;;;3.92;1.48;;;;;;;;;;4920150;29;20173;-77
2022/05/14 11:22:33;;;;;;;3.90;1.42;;;;;;;;;;4919832;29;20193;-76
2022/05/14 11:25:10;;;;;;;3.25;1.70;;;;;;;;;;4920010;29;20648;-76
2022/05/14 11:27:38;;;;;;;4.47;1.85;;;;;;;;;;4920251;29;20201;-76
2022/05/14 11:30:07;;;;;;;3.75;1.70;;;;;;;;;;4904616;29;20261;-76
2022/05/14 11:32:42;;;;;;;2.15;1.20;;;;;;;;;;4936692;29;20228;-76
2022/05/14 11:35:09;;;;;;;3.17;1.40;;;;;;;;;;4920062;29;20648;-76
2022/05/14 11:37:37;;;;;;;2.67;1.30;;;;;;;;;;4904045;29;20189;-77
2022/05/14 11:40:12;;;;;;;3.92;1.30;;;;;;;;;;4919979;29;20184;-77
2022/05/14 11:42:39;;;;;;;2.05;1.30;;;;;;;;;;4919376;29;20750;-76
2022/05/14 11:45:12;;;;;;;1.75;1.50;;;;;;;;;;4918907;29;20169;-77
2022/05/14 11:47:50;;;;;;;1.85;1.20;;;;;;;;;;4936666;29;20169;-77
2022/05/14 11:50:18;;;;;;;3.15;1.30;;;;;;;;;;4919477;29;20672;-77
2022/05/14 11:52:48;;;;;;;3.63;1.38;;;;;;;;;;4903635;29;20186;-77
2022/05/14 11:55:20;;;;;;;3.13;1.58;;;;;;;;;;4919403;29;20189;-77
2022/05/14 11:57:48;;;;;;;1.95;1.15;;;;;;;;;;4936435;29;20220;-76
2022/05/14 12:00:28;;;;;;;2.28;1.33;;;;;;;;;;4919528;29;20226;-76
2022/05/14 12:03:00;;;;;;;2.33;1.30;;;;;;;;;;4919149;29;20193;-76
2022/05/14 12:05:26;;;;;;;2.42;1.30;;;;;;;;;;4919522;29;20260;-77
2022/05/14 12:08:11;;;;;;;4.05;1.50;;;;;;;;;;4919222;29;20269;-77
2022/05/14 12:10:49;;;;;;;2.15;1.38;;;;;;;;;;4919082;29;20208;-77
2022/05/14 12:13:24;;;;;;;3.78;1.20;;;;;;;;;;4936015;29;20173;-77
2022/05/14 12:15:53;;;;;;;2.85;1.30;;;;;;;;;;4919110;29;20166;-77
2022/05/14 12:18:19;;;;;;;2.80;1.20;;;;;;;;;;4919313;29;20641;-77
2022/05/14 12:20:53;;;;;;;2.70;1.30;;;;;;;;;;4919409;29;20210;-77
2022/05/14 12:23:19;;;;;;;2.17;1.35;;;;;;;;;;4918665;29;20205;-77
2022/05/14 12:25:49;;;;;;;2.10;1.15;;;;;;;;;;4918946;29;20181;-77
2022/05/14 12:28:26;;;;;;;2.65;1.30;;;;;;;;;;4919095;29;20181;-77
2022/05/14 12:33:38;;;;;;;2.88;1.20;;;;;;;;;;4935965;29;20265;-77
2022/05/14 12:36:05;;;;;;;2.22;1.27;;;;;;;;;;4919029;29;20637;-77
2022/05/14 12:38:35;;;;;;;1.70;1.20;;;;;;;;;;4918687;29;20233;-77
2022/05/14 12:41:02;;;;;;;1.70;1.05;;;;;;;;;;4935967;29;20197;-77
2022/05/14 12:43:28;;;;;;;2.40;1.50;;;;;;;;;;4918360;29;20298;-76
2022/05/14 12:46:07;;;;;;;1.20;1.10;;;;;;;;;;4903311;29;20177;-76
2022/05/14 12:48:42;;;;;;;1.80;1.20;;;;;;;;;;4919178;29;20524;-77
2022/05/14 12:51:09;;;;;;;1.10;1.00;;;;;;;;;;4918526;29;20204;-77
2022/05/14 12:53:41;;;;;;;2.17;1.08;;;;;;;;;;4918691;29;20194;-77
2022/05/14 12:56:07;;;;;;;2.13;1.33;;;;;;;;;;4918283;29;20181;-77
2022/05/14 12:58:34;;;;;;;2.08;1.30;;;;;;;;;;4918389;29;20185;-77
2022/05/14 13:01:02;;;;;;;3.10;1.42;;;;;;;;;;4918291;29;20204;-77
2022/05/14 13:03:34;;;;;;;2.55;1.20;;;;;;;;;;4918435;29;20221;-77
2022/05/14 13:06:09;;;;;;;2.65;1.20;;;;;;;;;;4903310;29;20165;-77
2022/05/14 13:08:41;;;;;;;2.63;1.25;;;;;;;;;;4935436;29;20152;-77
2022/05/14 13:11:11;;;;;;;3.55;1.50;;;;;;;;;;4918720;29;20220;-76
2022/05/14 13:13:42;;;;;;;2.38;1.30;;;;;;;;;;4935257;29;20170;-77
2022/05/14 13:16:15;;;;;;;2.28;1.30;;;;;;;;;;4918417;29;20192;-77
2022/05/14 13:18:44;;;;;;;3.47;1.23;;;;;;;;;;4918552;29;20711;-77
2022/05/14 13:21:16;;;;;;;2.50;1.20;;;;;;;;;;4902557;29;20217;-77
2022/05/14 13:23:51;;;;;;;2.60;1.40;;;;;;;;;;4935128;29;20193;-77
2022/05/14 13:26:36;;;;;;;1.95;1.23;;;;;;;;;;4918290;29;20176;-77
2022/05/14 13:29:31;;;;;;;2.55;1.52;;;;;;;;;;4918100;29;20595;-77
2022/05/14 13:32:10;;;;;;;3.95;1.23;;;;;;;;;;4898441;29;20252;-77
2022/05/14 13:37:21;;;;;;;1.92;1.23;;;;;;;;;;4935516;29;20313;-77
2022/05/14 13:39:50;;;;;;;2.35;1.30;;;;;;;;;;4918050;29;20249;-81
2022/05/14 13:42:27;;;;;;;3.08;1.40;;;;;;;;;;4918003;29;20206;-77
2022/05/14 13:45:03;;;;;;;1.73;1.40;;;;;;;;;;4918075;29;20264;-77
2022/05/14 13:47:30;;;;;;;2.97;1.40;;;;;;;;;;4918391;29;20180;-77
2022/05/14 13:49:57;;;;;;;2.90;1.27;;;;;;;;;;4902633;29;20182;-77
2022/05/14 13:52:28;;;;;;;4.55;1.30;;;;;;;;;;4902234;29;20193;-77
2022/05/14 13:55:08;;;;;;;2.40;1.40;;;;;;;;;;4917961;29;20264;-77
2022/05/14 13:57:35;;;;;;;2.70;1.25;;;;;;;;;;4918321;29;20285;-77
2022/05/14 14:00:09;;;;;;;1.92;1.30;;;;;;;;;;4902230;29;20189;-77
2022/05/14 14:02:35;;;;;;;2.85;1.40;;;;;;;;;;4917656;29;20251;-77
2022/05/14 14:05:03;;;;;;;2.22;1.40;;;;;;;;;;4918350;29;20174;-77
2022/05/14 14:07:31;;;;;;;2.80;1.30;;;;;;;;;;4918817;29;20249;-77
2022/05/14 14:09:57;;;;;;;2.60;1.27;;;;;;;;;;4905976;29;20193;-77
2022/05/14 14:12:25;;;;;;;1.70;1.13;;;;;;;;;;4921449;29;20224;-77
2022/05/14 14:14:51;;;;;;;1.90;1.30;;;;;;;;;;4910259;29;20588;-78
2022/05/14 14:17:18;;;;;;;2.88;1.30;;;;;;;;;;4925411;29;20186;-78
2022/05/14 14:19:44;;;;;;;2.53;1.30;;;;;;;;;;4925374;29;20194;-78
2022/05/14 14:22:11;;;;;;;1.88;1.05;;;;;;;;;;4909774;29;20707;-78
2022/05/14 14:24:39;;;;;;;1.50;1.23;;;;;;;;;;4925542;29;20177;-78
2022/05/14 14:27:06;;;;;;;1.60;1.20;;;;;;;;;;4925169;29;20185;-78
2022/05/14 14:29:32;;;;;;;1.90;1.30;;;;;;;;;;4908698;29;20534;-78
2022/05/14 14:32:14;;;;;;;2.92;1.30;;;;;;;;;;4923300;29;20543;-78
2022/05/14 14:34:40;;;;;;;3.08;1.30;;;;;;;;;;4924212;29;20197;-78
2022/05/14 14:37:06;;;;;;;3.10;1.15;;;;;;;;;;4941696;29;20166;-78
2022/05/14 14:39:32;;;;;;;1.85;1.20;;;;;;;;;;4908505;29;20178;-78
2022/05/14 14:41:58;;;;;;;3.65;1.20;;;;;;;;;;4922795;29;20715;-78
2022/05/14 14:44:25;;;;;;;5.68;1.30;;;;;;;;;;4907495;29;20182;-78
2022/05/14 14:46:51;;;;;;;3.10;1.00;;;;;;;;;;4924376;29;20182;-78
2022/05/14 14:49:17;;;;;;;2.08;1.30;;;;;;;;;;4909456;29;20178;-78
2022/05/14 14:51:43;;;;;;;2.60;1.35;;;;;;;;;;4922331;29;20633;-78
2022/05/14 14:54:10;;;;;;;2.05;1.20;;;;;;;;;;4906245;29;20186;-78
2022/05/14 14:56:36;;;;;;;3.85;1.50;;;;;;;;;;4922657;29;20182;-78
2022/05/14 14:59:02;;;;;;;2.10;1.23;;;;;;;;;;4922269;29;20174;-78
2022/05/14 15:01:31;;;;;;;3.50;1.52;;;;;;;;;;4907270;29;20205;-78
2022/05/14 15:04:06;;;;;;;2.15;1.30;;;;;;;;;;4923438;29;20216;-78
2022/05/14 15:06:33;;;;;;;2.30;1.20;;;;;;;;;;4922214;29;20166;-78
2022/05/14 15:09:01;;;;;;;2.75;1.40;;;;;;;;;;4906211;29;20212;-78
2022/05/14 15:11:28;;;;;;;2.15;1.40;;;;;;;;;;4906408;29;20284;-78
2022/05/14 15:13:57;;;;;;;2.40;1.20;;;;;;;;;;4920799;29;20201;-78
2022/05/14 15:16:23;;;;;;;3.33;1.40;;;;;;;;;;4920875;29;20182;-78
2022/05/14 15:18:49;;;;;;;3.90;1.33;;;;;;;;;;4920862;29;20236;-78
2022/05/14 15:21:16;;;;;;;2.38;1.00;;;;;;;;;;4905676;29;20217;-78
2022/05/14 15:23:42;;;;;;;1.50;1.08;;;;;;;;;;4906493;29;20210;-78